Terminal Aerodrome Forecast
Issued by NWS Nashville, TN

Home | Current Version | Previous Version | Text Only | Print | Product List | Glossary On
Versions: 1 2 3 4 5 6 7 8 9 10 11 12 13 14 15 16
106
FTUS44 KOHX 221121
TAFCSV
TAF
KCSV 221121Z 2212/2312 16008G18KT P6SM BKN250
     FM221600 18013G21KT 4SM -SHRA OVC035
     FM222100 18012G20KT 6SM -SHRA OVC015
     FM230400 22011G17KT P6SM OVC035=

USA.gov is the U.S. government's official web portal to all federal, state and local government web resources and services.